sensor_id;sensor_type;location;lat;lon;timestamp;P1;durP1;ratioP1;P2;durP2;ratioP2
22786;SDS011;63134;52.020;4.714;2023-07-13T00:01:46;11.18;;;3.47;;
22786;SDS011;63134;52.020;4.714;2023-07-13T00:04:37;9.13;;;2.95;;
22786;SDS011;63134;52.020;4.714;2023-07-13T00:07:22;18.08;;;3.60;;
22786;SDS011;63134;52.020;4.714;2023-07-13T00:10:08;15.80;;;4.22;;
22786;SDS011;63134;52.020;4.714;2023-07-13T00:12:54;14.00;;;4.13;;
22786;SDS011;63134;52.020;4.714;2023-07-13T00:15:42;17.33;;;4.13;;
22786;SDS011;63134;52.020;4.714;2023-07-13T00:18:28;19.85;;;4.15;;
22786;SDS011;63134;52.020;4.714;2023-07-13T00:21:15;15.57;;;4.00;;
22786;SDS011;63134;52.020;4.714;2023-07-13T00:24:01;15.20;;;4.53;;
22786;SDS011;63134;52.020;4.714;2023-07-13T00:26:47;15.82;;;4.45;;
22786;SDS011;63134;52.020;4.714;2023-07-13T00:29:33;14.38;;;4.50;;
22786;SDS011;63134;52.020;4.714;2023-07-13T00:32:18;12.25;;;3.90;;
22786;SDS011;63134;52.020;4.714;2023-07-13T00:35:04;9.32;;;3.40;;
22786;SDS011;63134;52.020;4.714;2023-07-13T00:37:50;8.77;;;2.90;;
22786;SDS011;63134;52.020;4.714;2023-07-13T00:40:36;15.43;;;3.38;;
22786;SDS011;63134;52.020;4.714;2023-07-13T00:43:22;14.27;;;4.38;;
22786;SDS011;63134;52.020;4.714;2023-07-13T00:46:13;10.75;;;3.80;;
22786;SDS011;63134;52.020;4.714;2023-07-13T00:49:01;11.82;;;3.40;;
22786;SDS011;63134;52.020;4.714;2023-07-13T00:52:11;11.15;;;3.17;;
22786;SDS011;63134;52.020;4.714;2023-07-13T00:54:55;11.18;;;3.72;;
22786;SDS011;63134;52.020;4.714;2023-07-13T00:57:41;15.20;;;4.65;;
22786;SDS011;63134;52.020;4.714;2023-07-13T01:00:28;12.10;;;3.25;;
22786;SDS011;63134;52.020;4.714;2023-07-13T01:03:15;12.75;;;3.88;;
22786;SDS011;63134;52.020;4.714;2023-07-13T01:06:01;9.85;;;3.05;;
22786;SDS011;63134;52.020;4.714;2023-07-13T01:08:47;14.40;;;3.50;;
22786;SDS011;63134;52.020;4.714;2023-07-13T01:11:33;13.23;;;3.47;;
22786;SDS011;63134;52.020;4.714;2023-07-13T01:14:20;8.45;;;2.90;;
22786;SDS011;63134;52.020;4.714;2023-07-13T01:17:07;8.23;;;3.10;;
22786;SDS011;63134;52.020;4.714;2023-07-13T01:19:56;10.05;;;3.45;;
22786;SDS011;63134;52.020;4.714;2023-07-13T01:22:42;7.75;;;2.70;;
22786;SDS011;63134;52.020;4.714;2023-07-13T01:25:27;9.68;;;3.22;;
22786;SDS011;63134;52.020;4.714;2023-07-13T01:28:14;8.75;;;3.30;;
22786;SDS011;63134;52.020;4.714;2023-07-13T01:31:08;11.73;;;3.20;;
22786;SDS011;63134;52.020;4.714;2023-07-13T01:33:54;8.80;;;2.95;;
22786;SDS011;63134;52.020;4.714;2023-07-13T01:36:41;7.82;;;2.47;;
22786;SDS011;63134;52.020;4.714;2023-07-13T01:39:27;9.43;;;3.20;;
22786;SDS011;63134;52.020;4.714;2023-07-13T01:42:13;9.05;;;3.20;;
22786;SDS011;63134;52.020;4.714;2023-07-13T01:44:59;11.82;;;3.00;;
22786;SDS011;63134;52.020;4.714;2023-07-13T01:47:47;12.57;;;3.45;;
22786;SDS011;63134;52.020;4.714;2023-07-13T01:50:34;12.18;;;3.55;;
22786;SDS011;63134;52.020;4.714;2023-07-13T01:53:19;10.85;;;3.80;;
22786;SDS011;63134;52.020;4.714;2023-07-13T01:56:05;11.40;;;3.60;;
22786;SDS011;63134;52.020;4.714;2023-07-13T01:58:51;11.88;;;4.00;;
22786;SDS011;63134;52.020;4.714;2023-07-13T02:01:37;10.80;;;3.53;;
22786;SDS011;63134;52.020;4.714;2023-07-13T02:04:23;8.07;;;3.08;;
22786;SDS011;63134;52.020;4.714;2023-07-13T02:07:09;7.65;;;2.70;;
22786;SDS011;63134;52.020;4.714;2023-07-13T02:09:55;10.60;;;2.95;;
22786;SDS011;63134;52.020;4.714;2023-07-13T02:12:41;10.38;;;3.60;;
22786;SDS011;63134;52.020;4.714;2023-07-13T02:15:27;6.63;;;2.47;;
22786;SDS011;63134;52.020;4.714;2023-07-13T02:18:13;9.85;;;2.35;;
22786;SDS011;63134;52.020;4.714;2023-07-13T02:21:02;6.97;;;1.90;;
22786;SDS011;63134;52.020;4.714;2023-07-13T02:23:52;6.28;;;2.10;;
22786;SDS011;63134;52.020;4.714;2023-07-13T02:26:37;9.35;;;1.95;;
22786;SDS011;63134;52.020;4.714;2023-07-13T02:29:23;5.75;;;2.65;;
22786;SDS011;63134;52.020;4.714;2023-07-13T02:32:09;6.20;;;1.60;;
22786;SDS011;63134;52.020;4.714;2023-07-13T02:34:55;4.47;;;1.73;;
22786;SDS011;63134;52.020;4.714;2023-07-13T02:37:43;6.75;;;1.95;;
22786;SDS011;63134;52.020;4.714;2023-07-13T02:40:30;7.25;;;2.45;;
22786;SDS011;63134;52.020;4.714;2023-07-13T02:43:18;9.13;;;3.10;;
22786;SDS011;63134;52.020;4.714;2023-07-13T02:46:05;8.25;;;2.92;;
22786;SDS011;63134;52.020;4.714;2023-07-13T02:48:53;6.18;;;2.20;;
22786;SDS011;63134;52.020;4.714;2023-07-13T02:51:39;7.65;;;2.40;;
22786;SDS011;63134;52.020;4.714;2023-07-13T02:54:25;7.65;;;2.33;;
22786;SDS011;63134;52.020;4.714;2023-07-13T02:57:11;4.38;;;1.88;;
22786;SDS011;63134;52.020;4.714;2023-07-13T02:59:56;8.95;;;3.08;;
22786;SDS011;63134;52.020;4.714;2023-07-13T03:02:42;9.30;;;3.22;;
22786;SDS011;63134;52.020;4.714;2023-07-13T03:05:28;7.72;;;2.92;;
22786;SDS011;63134;52.020;4.714;2023-07-13T03:08:15;9.30;;;3.53;;
22786;SDS011;63134;52.020;4.714;2023-07-13T03:11:06;6.30;;;2.80;;
22786;SDS011;63134;52.020;4.714;2023-07-13T03:13:56;6.22;;;2.65;;
22786;SDS011;63134;52.020;4.714;2023-07-13T03:16:44;7.65;;;2.30;;
22786;SDS011;63134;52.020;4.714;2023-07-13T03:19:30;8.02;;;2.90;;
22786;SDS011;63134;52.020;4.714;2023-07-13T03:22:19;9.93;;;2.70;;
22786;SDS011;63134;52.020;4.714;2023-07-13T03:25:06;8.75;;;2.83;;
22786;SDS011;63134;52.020;4.714;2023-07-13T03:27:51;5.80;;;2.25;;
22786;SDS011;63134;52.020;4.714;2023-07-13T03:30:39;10.07;;;3.15;;
22786;SDS011;63134;52.020;4.714;2023-07-13T03:33:25;11.30;;;3.50;;
22786;SDS011;63134;52.020;4.714;2023-07-13T03:36:13;8.95;;;2.88;;
22786;SDS011;63134;52.020;4.714;2023-07-13T03:39:09;6.93;;;2.38;;
22786;SDS011;63134;52.020;4.714;2023-07-13T03:42:03;11.32;;;3.30;;
22786;SDS011;63134;52.020;4.714;2023-07-13T03:44:50;12.15;;;3.42;;
22786;SDS011;63134;52.020;4.714;2023-07-13T03:47:37;12.45;;;3.53;;
22786;SDS011;63134;52.020;4.714;2023-07-13T03:50:26;5.97;;;2.58;;
22786;SDS011;63134;52.020;4.714;2023-07-13T03:53:12;10.13;;;3.55;;
22786;SDS011;63134;52.020;4.714;2023-07-13T03:55:58;15.27;;;4.13;;
22786;SDS011;63134;52.020;4.714;2023-07-13T03:58:45;12.93;;;3.97;;
22786;SDS011;63134;52.020;4.714;2023-07-13T04:01:35;14.93;;;4.38;;
22786;SDS011;63134;52.020;4.714;2023-07-13T04:04:21;11.70;;;3.78;;
22786;SDS011;63134;52.020;4.714;2023-07-13T04:07:07;8.98;;;3.47;;
22786;SDS011;63134;52.020;4.714;2023-07-13T04:09:55;10.68;;;3.25;;
22786;SDS011;63134;52.020;4.714;2023-07-13T04:12:41;10.82;;;3.60;;
22786;SDS011;63134;52.020;4.714;2023-07-13T04:15:29;11.95;;;3.83;;
22786;SDS011;63134;52.020;4.714;2023-07-13T04:18:16;17.33;;;4.18;;
22786;SDS011;63134;52.020;4.714;2023-07-13T04:21:01;17.48;;;4.63;;
22786;SDS011;63134;52.020;4.714;2023-07-13T04:23:47;12.18;;;4.45;;
22786;SDS011;63134;52.020;4.714;2023-07-13T04:26:33;11.25;;;3.72;;
22786;SDS011;63134;52.020;4.714;2023-07-13T04:29:21;12.18;;;3.67;;
22786;SDS011;63134;52.020;4.714;2023-07-13T04:32:06;9.68;;;4.20;;
22786;SDS011;63134;52.020;4.714;2023-07-13T04:34:53;11.43;;;4.35;;
22786;SDS011;63134;52.020;4.714;2023-07-13T04:37:40;19.27;;;5.43;;
22786;SDS011;63134;52.020;4.714;2023-07-13T04:40:26;16.38;;;4.97;;
22786;SDS011;63134;52.020;4.714;2023-07-13T04:43:13;20.63;;;5.78;;
22786;SDS011;63134;52.020;4.714;2023-07-13T04:46:09;20.27;;;6.03;;
22786;SDS011;63134;52.020;4.714;2023-07-13T04:48:58;18.55;;;5.75;;
22786;SDS011;63134;52.020;4.714;2023-07-13T04:51:43;12.10;;;4.50;;
22786;SDS011;63134;52.020;4.714;2023-07-13T04:54:29;13.30;;;4.15;;
22786;SDS011;63134;52.020;4.714;2023-07-13T04:57:15;11.60;;;4.18;;
22786;SDS011;63134;52.020;4.714;2023-07-13T05:00:00;14.07;;;4.63;;
22786;SDS011;63134;52.020;4.714;2023-07-13T05:02:53;19.08;;;5.43;;
22786;SDS011;63134;52.020;4.714;2023-07-13T05:05:40;14.40;;;5.05;;
22786;SDS011;63134;52.020;4.714;2023-07-13T05:08:26;20.95;;;5.40;;
22786;SDS011;63134;52.020;4.714;2023-07-13T05:11:12;20.77;;;5.30;;
22786;SDS011;63134;52.020;4.714;2023-07-13T05:13:58;13.00;;;4.10;;
22786;SDS011;63134;52.020;4.714;2023-07-13T05:16:43;10.63;;;4.57;;
22786;SDS011;63134;52.020;4.714;2023-07-13T05:19:29;15.07;;;4.55;;
22786;SDS011;63134;52.020;4.714;2023-07-13T05:22:15;14.50;;;5.10;;
22786;SDS011;63134;52.020;4.714;2023-07-13T05:25:06;16.95;;;4.60;;
22786;SDS011;63134;52.020;4.714;2023-07-13T05:27:53;19.05;;;6.35;;
22786;SDS011;63134;52.020;4.714;2023-07-13T05:30:38;20.23;;;6.13;;
22786;SDS011;63134;52.020;4.714;2023-07-13T05:33:24;18.55;;;5.55;;
22786;SDS011;63134;52.020;4.714;2023-07-13T05:36:10;18.85;;;5.88;;
22786;SDS011;63134;52.020;4.714;2023-07-13T05:38:56;17.55;;;6.20;;
22786;SDS011;63134;52.020;4.714;2023-07-13T05:41:42;18.88;;;5.40;;
22786;SDS011;63134;52.020;4.714;2023-07-13T05:44:27;18.48;;;4.65;;
22786;SDS011;63134;52.020;4.714;2023-07-13T05:47:13;19.05;;;4.55;;
22786;SDS011;63134;52.020;4.714;2023-07-13T05:49:59;18.48;;;5.45;;
22786;SDS011;63134;52.020;4.714;2023-07-13T05:52:48;18.73;;;5.18;;
22786;SDS011;63134;52.020;4.714;2023-07-13T05:55:34;18.17;;;5.00;;
22786;SDS011;63134;52.020;4.714;2023-07-13T05:58:20;17.67;;;5.40;;
22786;SDS011;63134;52.020;4.714;2023-07-13T06:01:10;15.57;;;5.07;;
22786;SDS011;63134;52.020;4.714;2023-07-13T06:03:58;13.77;;;3.75;;
22786;SDS011;63134;52.020;4.714;2023-07-13T06:06:44;19.95;;;5.95;;
22786;SDS011;63134;52.020;4.714;2023-07-13T06:09:29;15.20;;;5.22;;
22786;SDS011;63134;52.020;4.714;2023-07-13T06:12:15;27.10;;;5.82;;
22786;SDS011;63134;52.020;4.714;2023-07-13T06:15:01;14.38;;;4.28;;
22786;SDS011;63134;52.020;4.714;2023-07-13T06:17:47;16.60;;;4.57;;
22786;SDS011;63134;52.020;4.714;2023-07-13T06:20:34;13.77;;;4.25;;
22786;SDS011;63134;52.020;4.714;2023-07-13T06:23:19;7.80;;;2.97;;
22786;SDS011;63134;52.020;4.714;2023-07-13T06:26:05;4.55;;;2.05;;
22786;SDS011;63134;52.020;4.714;2023-07-13T06:28:51;5.57;;;2.22;;
22786;SDS011;63134;52.020;4.714;2023-07-13T06:31:37;4.22;;;2.30;;
22786;SDS011;63134;52.020;4.714;2023-07-13T06:34:23;6.07;;;2.00;;
22786;SDS011;63134;52.020;4.714;2023-07-13T06:37:09;6.68;;;2.65;;
22786;SDS011;63134;52.020;4.714;2023-07-13T06:39:55;6.25;;;2.30;;
22786;SDS011;63134;52.020;4.714;2023-07-13T06:42:44;7.18;;;2.70;;
22786;SDS011;63134;52.020;4.714;2023-07-13T06:45:29;6.43;;;2.65;;
22786;SDS011;63134;52.020;4.714;2023-07-13T06:48:16;6.78;;;2.50;;
22786;SDS011;63134;52.020;4.714;2023-07-13T06:51:08;4.07;;;1.95;;
22786;SDS011;63134;52.020;4.714;2023-07-13T06:53:54;3.63;;;2.30;;
22786;SDS011;63134;52.020;4.714;2023-07-13T06:56:40;5.80;;;1.90;;
22786;SDS011;63134;52.020;4.714;2023-07-13T06:59:26;3.17;;;1.80;;
22786;SDS011;63134;52.020;4.714;2023-07-13T07:02:12;3.53;;;1.75;;
22786;SDS011;63134;52.020;4.714;2023-07-13T07:04:57;4.13;;;2.28;;
22786;SDS011;63134;52.020;4.714;2023-07-13T07:07:43;5.28;;;2.00;;
22786;SDS011;63134;52.020;4.714;2023-07-13T07:10:29;4.95;;;2.20;;
22786;SDS011;63134;52.020;4.714;2023-07-13T07:13:16;4.13;;;1.88;;
22786;SDS011;63134;52.020;4.714;2023-07-13T07:16:03;4.50;;;2.40;;
22786;SDS011;63134;52.020;4.714;2023-07-13T07:18:48;3.33;;;2.10;;
22786;SDS011;63134;52.020;4.714;2023-07-13T07:21:34;5.07;;;2.65;;
22786;SDS011;63134;52.020;4.714;2023-07-13T07:24:19;6.97;;;3.00;;
22786;SDS011;63134;52.020;4.714;2023-07-13T07:27:05;7.35;;;2.65;;
22786;SDS011;63134;52.020;4.714;2023-07-13T07:29:53;5.05;;;2.50;;
22786;SDS011;63134;52.020;4.714;2023-07-13T07:32:59;5.28;;;2.88;;
22786;SDS011;63134;52.020;4.714;2023-07-13T07:35:49;11.20;;;3.35;;
22786;SDS011;63134;52.020;4.714;2023-07-13T07:38:39;6.38;;;3.08;;
22786;SDS011;63134;52.020;4.714;2023-07-13T07:41:27;9.52;;;3.42;;
22786;SDS011;63134;52.020;4.714;2023-07-13T07:44:16;5.97;;;3.15;;
22786;SDS011;63134;52.020;4.714;2023-07-13T07:47:01;7.43;;;3.03;;
22786;SDS011;63134;52.020;4.714;2023-07-13T07:49:47;8.20;;;3.25;;
22786;SDS011;63134;52.020;4.714;2023-07-13T07:52:32;5.88;;;2.80;;
22786;SDS011;63134;52.020;4.714;2023-07-13T07:55:18;7.93;;;2.85;;
22786;SDS011;63134;52.020;4.714;2023-07-13T07:58:07;5.95;;;2.40;;
22786;SDS011;63134;52.020;4.714;2023-07-13T08:01:13;5.60;;;2.22;;
22786;SDS011;63134;52.020;4.714;2023-07-13T08:04:02;4.80;;;2.20;;
22786;SDS011;63134;52.020;4.714;2023-07-13T08:06:50;5.07;;;2.30;;
22786;SDS011;63134;52.020;4.714;2023-07-13T08:09:36;7.63;;;2.53;;
22786;SDS011;63134;52.020;4.714;2023-07-13T08:12:21;7.30;;;2.50;;
22786;SDS011;63134;52.020;4.714;2023-07-13T08:15:11;5.10;;;2.40;;
22786;SDS011;63134;52.020;4.714;2023-07-13T08:17:58;10.35;;;3.03;;
22786;SDS011;63134;52.020;4.714;2023-07-13T08:20:48;6.80;;;2.75;;
22786;SDS011;63134;52.020;4.714;2023-07-13T08:23:34;10.35;;;2.80;;
22786;SDS011;63134;52.020;4.714;2023-07-13T08:26:20;8.32;;;3.42;;
22786;SDS011;63134;52.020;4.714;2023-07-13T08:29:06;7.82;;;3.03;;
22786;SDS011;63134;52.020;4.714;2023-07-13T08:31:52;5.10;;;2.60;;
22786;SDS011;63134;52.020;4.714;2023-07-13T08:34:38;6.93;;;2.83;;
22786;SDS011;63134;52.020;4.714;2023-07-13T08:37:27;6.97;;;2.95;;
22786;SDS011;63134;52.020;4.714;2023-07-13T08:40:13;5.63;;;2.40;;
22786;SDS011;63134;52.020;4.714;2023-07-13T08:42:59;7.47;;;2.47;;
22786;SDS011;63134;52.020;4.714;2023-07-13T08:45:46;5.57;;;2.83;;
22786;SDS011;63134;52.020;4.714;2023-07-13T08:48:59;5.70;;;2.50;;
22786;SDS011;63134;52.020;4.714;2023-07-13T08:54:51;5.95;;;2.58;;
22786;SDS011;63134;52.020;4.714;2023-07-13T08:57:53;7.80;;;2.63;;
22786;SDS011;63134;52.020;4.714;2023-07-13T09:04:11;6.57;;;2.78;;
22786;SDS011;63134;52.020;4.714;2023-07-13T09:07:20;9.07;;;2.88;;
22786;SDS011;63134;52.020;4.714;2023-07-13T09:13:26;5.68;;;2.83;;
22786;SDS011;63134;52.020;4.714;2023-07-13T09:16:18;6.07;;;2.60;;
22786;SDS011;63134;52.020;4.714;2023-07-13T09:19:06;3.90;;;2.30;;
22786;SDS011;63134;52.020;4.714;2023-07-13T09:21:58;4.32;;;2.42;;
22786;SDS011;63134;52.020;4.714;2023-07-13T09:24:50;4.32;;;2.33;;
22786;SDS011;63134;52.020;4.714;2023-07-13T09:27:42;4.07;;;2.10;;
22786;SDS011;63134;52.020;4.714;2023-07-13T09:30:35;3.85;;;2.42;;
22786;SDS011;63134;52.020;4.714;2023-07-13T09:33:25;4.55;;;2.83;;
22786;SDS011;63134;52.020;4.714;2023-07-13T09:39:25;6.10;;;2.60;;
22786;SDS011;63134;52.020;4.714;2023-07-13T09:42:21;5.00;;;2.92;;
22786;SDS011;63134;52.020;4.714;2023-07-13T09:45:07;9.60;;;3.33;;
22786;SDS011;63134;52.020;4.714;2023-07-13T09:48:04;4.88;;;2.22;;
22786;SDS011;63134;52.020;4.714;2023-07-13T09:50:57;7.45;;;2.30;;
22786;SDS011;63134;52.020;4.714;2023-07-13T09:53:52;6.18;;;2.28;;
22786;SDS011;63134;52.020;4.714;2023-07-13T09:56:39;4.13;;;2.00;;
22786;SDS011;63134;52.020;4.714;2023-07-13T09:59:34;7.95;;;2.95;;
22786;SDS011;63134;52.020;4.714;2023-07-13T10:02:25;5.45;;;2.00;;
22786;SDS011;63134;52.020;4.714;2023-07-13T10:05:20;5.38;;;2.40;;
22786;SDS011;63134;52.020;4.714;2023-07-13T10:11:28;8.10;;;2.83;;
22786;SDS011;63134;52.020;4.714;2023-07-13T10:14:16;5.20;;;2.42;;
22786;SDS011;63134;52.020;4.714;2023-07-13T10:17:05;7.40;;;3.10;;
22786;SDS011;63134;52.020;4.714;2023-07-13T10:19:55;5.85;;;2.88;;
22786;SDS011;63134;52.020;4.714;2023-07-13T10:22:44;7.72;;;2.85;;
22786;SDS011;63134;52.020;4.714;2023-07-13T10:25:43;9.93;;;3.40;;
22786;SDS011;63134;52.020;4.714;2023-07-13T10:28:36;7.10;;;2.42;;
22786;SDS011;63134;52.020;4.714;2023-07-13T10:31:23;6.70;;;3.20;;
22786;SDS011;63134;52.020;4.714;2023-07-13T10:34:09;6.95;;;3.08;;
22786;SDS011;63134;52.020;4.714;2023-07-13T10:36:57;8.10;;;2.70;;
22786;SDS011;63134;52.020;4.714;2023-07-13T10:39:43;7.35;;;2.90;;
22786;SDS011;63134;52.020;4.714;2023-07-13T10:42:32;7.30;;;3.30;;
22786;SDS011;63134;52.020;4.714;2023-07-13T10:45:22;11.20;;;2.80;;
22786;SDS011;63134;52.020;4.714;2023-07-13T10:48:12;6.07;;;3.05;;
22786;SDS011;63134;52.020;4.714;2023-07-13T10:51:01;8.63;;;3.47;;
22786;SDS011;63134;52.020;4.714;2023-07-13T10:54:10;7.50;;;2.90;;
22786;SDS011;63134;52.020;4.714;2023-07-13T11:03:01;6.53;;;2.88;;
22786;SDS011;63134;52.020;4.714;2023-07-13T11:05:50;6.18;;;2.60;;
22786;SDS011;63134;52.020;4.714;2023-07-13T11:11:35;4.70;;;2.42;;
22786;SDS011;63134;52.020;4.714;2023-07-13T11:14:28;5.82;;;2.17;;
22786;SDS011;63134;52.020;4.714;2023-07-13T11:20:34;5.32;;;2.42;;
22786;SDS011;63134;52.020;4.714;2023-07-13T11:23:29;8.57;;;2.75;;
22786;SDS011;63134;52.020;4.714;2023-07-13T11:32:30;5.75;;;2.67;;
22786;SDS011;63134;52.020;4.714;2023-07-13T11:35:18;4.40;;;2.17;;
22786;SDS011;63134;52.020;4.714;2023-07-13T11:38:15;4.88;;;2.70;;
22786;SDS011;63134;52.020;4.714;2023-07-13T11:44:05;4.77;;;2.47;;
22786;SDS011;63134;52.020;4.714;2023-07-13T11:47:08;4.65;;;2.28;;
22786;SDS011;63134;52.020;4.714;2023-07-13T11:50:02;7.72;;;2.63;;
22786;SDS011;63134;52.020;4.714;2023-07-13T11:52:49;5.22;;;1.95;;
22786;SDS011;63134;52.020;4.714;2023-07-13T11:55:38;6.47;;;2.35;;
22786;SDS011;63134;52.020;4.714;2023-07-13T11:58:25;6.25;;;2.20;;
22786;SDS011;63134;52.020;4.714;2023-07-13T12:01:42;4.82;;;2.38;;
22786;SDS011;63134;52.020;4.714;2023-07-13T12:04:31;5.03;;;2.28;;
22786;SDS011;63134;52.020;4.714;2023-07-13T12:07:19;4.18;;;1.92;;
22786;SDS011;63134;52.020;4.714;2023-07-13T12:13:01;5.25;;;2.10;;
22786;SDS011;63134;52.020;4.714;2023-07-13T12:15:55;4.60;;;2.10;;
22786;SDS011;63134;52.020;4.714;2023-07-13T12:18:42;4.32;;;1.95;;
22786;SDS011;63134;52.020;4.714;2023-07-13T12:21:33;3.78;;;1.65;;
22786;SDS011;63134;52.020;4.714;2023-07-13T12:24:22;3.63;;;1.75;;
22786;SDS011;63134;52.020;4.714;2023-07-13T12:33:11;3.30;;;1.88;;
22786;SDS011;63134;52.020;4.714;2023-07-13T12:35:57;3.67;;;1.50;;
22786;SDS011;63134;52.020;4.714;2023-07-13T12:38:47;3.67;;;1.80;;
22786;SDS011;63134;52.020;4.714;2023-07-13T12:41:32;4.18;;;1.90;;
22786;SDS011;63134;52.020;4.714;2023-07-13T12:44:27;2.47;;;1.67;;
22786;SDS011;63134;52.020;4.714;2023-07-13T12:47:15;6.93;;;1.90;;
22786;SDS011;63134;52.020;4.714;2023-07-13T12:50:02;3.40;;;1.77;;
22786;SDS011;63134;52.020;4.714;2023-07-13T12:52:51;3.13;;;1.83;;
22786;SDS011;63134;52.020;4.714;2023-07-13T12:55:47;2.33;;;1.48;;
22786;SDS011;63134;52.020;4.714;2023-07-13T12:58:39;3.78;;;1.75;;
22786;SDS011;63134;52.020;4.714;2023-07-13T13:01:32;4.45;;;1.55;;
22786;SDS011;63134;52.020;4.714;2023-07-13T13:04:22;6.47;;;1.88;;
22786;SDS011;63134;52.020;4.714;2023-07-13T13:07:09;4.03;;;1.60;;
22786;SDS011;63134;52.020;4.714;2023-07-13T13:09:58;4.32;;;1.27;;
22786;SDS011;63134;52.020;4.714;2023-07-13T13:12:43;3.90;;;1.77;;
22786;SDS011;63134;52.020;4.714;2023-07-13T13:15:32;2.92;;;1.70;;
22786;SDS011;63134;52.020;4.714;2023-07-13T13:18:19;3.22;;;1.50;;
22786;SDS011;63134;52.020;4.714;2023-07-13T13:21:09;3.28;;;1.40;;
22786;SDS011;63134;52.020;4.714;2023-07-13T13:23:54;5.10;;;1.90;;
22786;SDS011;63134;52.020;4.714;2023-07-13T13:26:40;6.93;;;1.70;;
22786;SDS011;63134;52.020;4.714;2023-07-13T13:29:26;4.20;;;1.80;;
22786;SDS011;63134;52.020;4.714;2023-07-13T13:32:13;3.15;;;1.70;;
22786;SDS011;63134;52.020;4.714;2023-07-13T13:34:59;3.20;;;1.65;;
22786;SDS011;63134;52.020;4.714;2023-07-13T13:37:45;5.15;;;1.83;;
22786;SDS011;63134;52.020;4.714;2023-07-13T13:40:35;3.47;;;1.73;;
22786;SDS011;63134;52.020;4.714;2023-07-13T13:43:25;4.13;;;1.70;;
22786;SDS011;63134;52.020;4.714;2023-07-13T13:46:15;4.13;;;1.75;;
22786;SDS011;63134;52.020;4.714;2023-07-13T13:49:17;3.03;;;1.15;;
22786;SDS011;63134;52.020;4.714;2023-07-13T13:52:04;3.13;;;1.45;;
22786;SDS011;63134;52.020;4.714;2023-07-13T13:54:50;4.13;;;1.50;;
22786;SDS011;63134;52.020;4.714;2023-07-13T13:57:40;3.83;;;1.40;;
22786;SDS011;63134;52.020;4.714;2023-07-13T14:00:26;4.97;;;1.60;;
22786;SDS011;63134;52.020;4.714;2023-07-13T14:03:15;1.90;;;1.20;;
22786;SDS011;63134;52.020;4.714;2023-07-13T14:06:03;2.85;;;1.48;;
22786;SDS011;63134;52.020;4.714;2023-07-13T14:08:49;5.03;;;1.70;;
22786;SDS011;63134;52.020;4.714;2023-07-13T14:11:34;2.83;;;1.58;;
22786;SDS011;63134;52.020;4.714;2023-07-13T14:14:21;2.53;;;1.40;;
22786;SDS011;63134;52.020;4.714;2023-07-13T14:17:22;2.38;;;1.35;;
22786;SDS011;63134;52.020;4.714;2023-07-13T14:20:11;2.95;;;1.50;;
22786;SDS011;63134;52.020;4.714;2023-07-13T14:22:57;2.90;;;1.30;;
22786;SDS011;63134;52.020;4.714;2023-07-13T14:25:43;2.30;;;1.40;;
22786;SDS011;63134;52.020;4.714;2023-07-13T14:28:29;2.90;;;1.40;;
22786;SDS011;63134;52.020;4.714;2023-07-13T14:31:16;2.47;;;1.20;;
22786;SDS011;63134;52.020;4.714;2023-07-13T14:34:04;2.20;;;1.15;;
22786;SDS011;63134;52.020;4.714;2023-07-13T14:36:50;3.75;;;1.30;;
22786;SDS011;63134;52.020;4.714;2023-07-13T14:39:36;2.50;;;1.40;;
22786;SDS011;63134;52.020;4.714;2023-07-13T14:42:23;4.70;;;2.03;;
22786;SDS011;63134;52.020;4.714;2023-07-13T14:45:15;3.03;;;1.17;;
22786;SDS011;63134;52.020;4.714;2023-07-13T14:48:02;2.80;;;1.50;;
22786;SDS011;63134;52.020;4.714;2023-07-13T14:50:53;2.08;;;1.40;;
22786;SDS011;63134;52.020;4.714;2023-07-13T14:53:41;1.65;;;1.20;;
22786;SDS011;63134;52.020;4.714;2023-07-13T14:56:26;4.43;;;1.90;;
22786;SDS011;63134;52.020;4.714;2023-07-13T14:59:12;1.52;;;1.10;;
22786;SDS011;63134;52.020;4.714;2023-07-13T15:01:59;3.13;;;1.38;;
22786;SDS011;63134;52.020;4.714;2023-07-13T15:04:44;2.15;;;1.20;;
22786;SDS011;63134;52.020;4.714;2023-07-13T15:07:30;3.38;;;1.77;;
22786;SDS011;63134;52.020;4.714;2023-07-13T15:10:20;4.63;;;1.60;;
22786;SDS011;63134;52.020;4.714;2023-07-13T15:13:14;4.57;;;1.52;;
22786;SDS011;63134;52.020;4.714;2023-07-13T15:18:47;6.20;;;1.88;;
22786;SDS011;63134;52.020;4.714;2023-07-13T15:21:33;3.33;;;1.20;;
22786;SDS011;63134;52.020;4.714;2023-07-13T15:24:20;4.60;;;1.10;;
22786;SDS011;63134;52.020;4.714;2023-07-13T15:27:10;2.47;;;1.20;;
22786;SDS011;63134;52.020;4.714;2023-07-13T15:29:57;2.65;;;1.02;;
22786;SDS011;63134;52.020;4.714;2023-07-13T15:32:43;3.15;;;1.33;;
22786;SDS011;63134;52.020;4.714;2023-07-13T15:35:29;1.90;;;0.95;;
22786;SDS011;63134;52.020;4.714;2023-07-13T15:38:16;2.10;;;0.90;;
22786;SDS011;63134;52.020;4.714;2023-07-13T15:41:10;2.80;;;0.88;;
22786;SDS011;63134;52.020;4.714;2023-07-13T15:44:22;2.42;;;1.13;;
22786;SDS011;63134;52.020;4.714;2023-07-13T15:47:11;2.90;;;1.25;;
22786;SDS011;63134;52.020;4.714;2023-07-13T15:49:59;5.57;;;1.50;;
22786;SDS011;63134;52.020;4.714;2023-07-13T15:52:47;4.95;;;1.30;;
22786;SDS011;63134;52.020;4.714;2023-07-13T15:55:39;2.80;;;1.20;;
22786;SDS011;63134;52.020;4.714;2023-07-13T15:58:28;2.92;;;1.30;;
22786;SDS011;63134;52.020;4.714;2023-07-13T16:01:13;5.25;;;1.30;;
22786;SDS011;63134;52.020;4.714;2023-07-13T16:04:00;3.10;;;1.25;;
22786;SDS011;63134;52.020;4.714;2023-07-13T16:06:46;2.42;;;1.15;;
22786;SDS011;63134;52.020;4.714;2023-07-13T16:09:32;2.08;;;1.25;;
22786;SDS011;63134;52.020;4.714;2023-07-13T16:12:17;6.05;;;1.55;;
22786;SDS011;63134;52.020;4.714;2023-07-13T16:15:04;6.78;;;1.95;;
22786;SDS011;63134;52.020;4.714;2023-07-13T16:17:57;3.87;;;1.47;;
22786;SDS011;63134;52.020;4.714;2023-07-13T16:20:43;3.40;;;1.70;;
22786;SDS011;63134;52.020;4.714;2023-07-13T16:23:30;3.85;;;1.52;;
22786;SDS011;63134;52.020;4.714;2023-07-13T16:26:38;5.82;;;1.50;;
22786;SDS011;63134;52.020;4.714;2023-07-13T16:29:28;2.85;;;1.48;;
22786;SDS011;63134;52.020;4.714;2023-07-13T16:32:15;1.90;;;1.33;;
22786;SDS011;63134;52.020;4.714;2023-07-13T16:35:01;3.25;;;1.40;;
22786;SDS011;63134;52.020;4.714;2023-07-13T16:37:47;5.63;;;2.00;;
22786;SDS011;63134;52.020;4.714;2023-07-13T16:40:46;2.67;;;1.38;;
22786;SDS011;63134;52.020;4.714;2023-07-13T16:43:32;3.85;;;1.63;;
22786;SDS011;63134;52.020;4.714;2023-07-13T16:46:21;3.10;;;1.63;;
22786;SDS011;63134;52.020;4.714;2023-07-13T16:49:27;5.38;;;1.70;;
22786;SDS011;63134;52.020;4.714;2023-07-13T16:52:16;2.42;;;1.33;;
22786;SDS011;63134;52.020;4.714;2023-07-13T16:55:09;2.85;;;1.40;;
22786;SDS011;63134;52.020;4.714;2023-07-13T16:57:57;3.67;;;1.52;;
22786;SDS011;63134;52.020;4.714;2023-07-13T17:00:46;3.28;;;1.30;;
22786;SDS011;63134;52.020;4.714;2023-07-13T17:03:32;3.25;;;1.20;;
22786;SDS011;63134;52.020;4.714;2023-07-13T17:06:22;4.82;;;1.58;;
22786;SDS011;63134;52.020;4.714;2023-07-13T17:09:09;2.63;;;1.13;;
22786;SDS011;63134;52.020;4.714;2023-07-13T17:11:58;2.55;;;1.23;;
22786;SDS011;63134;52.020;4.714;2023-07-13T17:14:44;3.10;;;1.10;;
22786;SDS011;63134;52.020;4.714;2023-07-13T17:17:33;4.07;;;1.20;;
22786;SDS011;63134;52.020;4.714;2023-07-13T17:20:29;2.40;;;1.15;;
22786;SDS011;63134;52.020;4.714;2023-07-13T17:23:22;4.88;;;1.40;;
22786;SDS011;63134;52.020;4.714;2023-07-13T17:26:10;2.92;;;1.38;;
22786;SDS011;63134;52.020;4.714;2023-07-13T17:28:56;1.83;;;1.23;;
22786;SDS011;63134;52.020;4.714;2023-07-13T17:31:42;4.22;;;1.50;;
22786;SDS011;63134;52.020;4.714;2023-07-13T17:34:30;5.38;;;1.70;;
22786;SDS011;63134;52.020;4.714;2023-07-13T17:37:16;4.40;;;1.50;;
22786;SDS011;63134;52.020;4.714;2023-07-13T17:40:04;4.43;;;1.38;;